createdAt,value
2018-04-12T00:00:51.480Z,84.80
2018-04-12T00:03:18.911Z,84.80
2018-04-12T00:05:46.339Z,85.00
2018-04-12T00:08:14.549Z,85.00
2018-04-12T00:10:41.995Z,85.00
2018-04-12T00:13:09.427Z,85.00
2018-04-12T00:15:37.653Z,85.10
2018-04-12T00:18:05.100Z,85.10
2018-04-12T00:20:32.535Z,85.00
2018-04-12T00:23:00.033Z,85.10
2018-04-12T00:25:27.483Z,85.20
2018-04-12T00:27:54.916Z,85.30
2018-04-12T00:30:22.355Z,85.30
2018-04-12T00:32:50.574Z,85.40
2018-04-12T00:35:18.044Z,85.40
2018-04-12T00:37:45.470Z,85.50
2018-04-12T00:40:12.934Z,85.50
2018-04-12T00:42:40.410Z,86.10
2018-04-12T00:45:07.970Z,86.10
2018-04-12T00:47:35.424Z,86.20
2018-04-12T00:50:02.873Z,86.10
2018-04-12T00:52:30.323Z,86.10
2018-04-12T00:54:57.751Z,86.00
2018-04-12T00:57:25.195Z,86.00
2018-04-12T00:59:53.432Z,86.70
2018-04-12T01:02:20.880Z,86.00
2018-04-12T01:04:48.312Z,86.10
2018-04-12T01:07:15.758Z,86.20
2018-04-12T01:09:43.975Z,86.10
2018-04-12T01:12:11.542Z,86.10
2018-04-12T01:14:38.989Z,86.20
2018-04-12T01:17:06.415Z,86.30
2018-04-12T01:19:33.849Z,86.40
2018-04-12T01:22:02.060Z,86.50
2018-04-12T01:24:29.547Z,86.50
2018-04-12T01:26:57.004Z,86.60
2018-04-12T01:29:24.429Z,86.60
2018-04-12T01:31:51.879Z,86.70
2018-04-12T01:34:19.338Z,86.80
2018-04-12T01:36:46.807Z,86.80
2018-04-12T01:39:14.297Z,86.90
2018-04-12T01:41:41.741Z,86.90
2018-04-12T01:44:09.179Z,87.10
2018-04-12T01:46:36.634Z,87.10
2018-04-12T01:49:04.098Z,88.10
2018-04-12T01:51:31.519Z,88.30
2018-04-12T01:53:58.956Z,88.40
2018-04-12T01:56:26.487Z,88.50
2018-04-12T01:58:53.920Z,89.30
2018-04-12T02:01:21.394Z,88.60
2018-04-12T02:03:48.859Z,89.40
2018-04-12T02:06:16.286Z,89.50
2018-04-12T02:08:43.753Z,88.90
2018-04-12T02:11:11.192Z,88.90
2018-04-12T02:13:38.646Z,89.00
2018-04-12T02:16:06.877Z,89.10
2018-04-12T02:18:35.820Z,89.30
2018-04-12T02:21:03.316Z,89.20
2018-04-12T02:23:30.775Z,89.20
2018-04-12T02:25:58.235Z,89.30
2018-04-12T02:28:25.771Z,89.40
2018-04-12T02:30:53.208Z,90.00
2018-04-12T02:33:20.634Z,89.40
2018-04-12T02:35:48.848Z,89.50
2018-04-12T02:38:16.286Z,89.50
2018-04-12T02:40:43.742Z,89.60
2018-04-12T02:43:11.932Z,89.70
2018-04-12T02:45:39.368Z,89.70
2018-04-12T02:48:07.585Z,89.80
2018-04-12T02:50:35.032Z,89.80
2018-04-12T02:53:02.459Z,89.80
2018-04-12T02:55:29.903Z,89.90
2018-04-12T02:57:58.099Z,90.00
2018-04-12T03:00:25.527Z,90.00
2018-04-12T03:02:53.736Z,90.10
2018-04-12T03:05:21.162Z,90.00
2018-04-12T03:07:49.355Z,90.10
2018-04-12T03:10:16.792Z,90.10
2018-04-12T03:12:45.024Z,90.10
2018-04-12T03:15:12.670Z,90.10
2018-04-12T03:17:40.148Z,90.10
2018-04-12T03:20:07.599Z,90.10
2018-04-12T03:22:35.024Z,90.10
2018-04-12T03:25:02.521Z,90.20
2018-04-12T03:27:30.073Z,90.20
2018-04-12T03:29:57.516Z,90.20
2018-04-12T03:32:24.991Z,90.20
2018-04-12T03:34:52.419Z,90.20
2018-04-12T03:37:19.922Z,90.20
2018-04-12T03:39:47.455Z,90.20
2018-04-12T03:42:14.904Z,90.20
2018-04-12T03:44:42.325Z,90.30
2018-04-12T03:47:10.551Z,90.20
2018-04-12T03:49:38.845Z,90.20
2018-04-12T03:52:06.231Z,90.20
2018-04-12T03:54:33.674Z,90.20
2018-04-12T03:57:01.117Z,90.20
2018-04-12T03:59:28.549Z,90.20
2018-04-12T04:01:56.748Z,90.50
2018-04-12T04:04:24.207Z,90.50
2018-04-12T04:06:51.657Z,90.50
2018-04-12T04:09:19.892Z,90.40
2018-04-12T04:11:47.309Z,90.40
2018-04-12T04:14:26.801Z,90.40
2018-04-12T04:17:06.148Z,90.40
2018-04-12T04:19:46.354Z,90.40
2018-04-12T04:22:13.782Z,90.40
2018-04-12T04:24:41.231Z,90.40
2018-04-12T04:27:09.437Z,90.50
2018-04-12T04:29:36.875Z,90.50
2018-04-12T04:32:04.348Z,90.50
2018-04-12T04:34:31.799Z,90.50
2018-04-12T04:36:59.223Z,90.50
2018-04-12T04:39:27.444Z,90.60
2018-04-12T04:41:55.692Z,90.60
2018-04-12T04:44:23.136Z,90.60
2018-04-12T04:46:50.543Z,90.60
2018-04-12T04:49:18.059Z,90.60
2018-04-12T04:51:45.483Z,90.60
2018-04-12T04:54:12.939Z,90.70
2018-04-12T04:56:40.370Z,90.70
2018-04-12T04:59:07.819Z,90.70
2018-04-12T05:01:36.014Z,90.80
2018-04-12T05:04:03.479Z,90.80
2018-04-12T05:06:30.912Z,90.90
2018-04-12T05:08:58.356Z,90.80
2018-04-12T05:11:25.854Z,90.90
2018-04-12T05:13:53.328Z,90.90
2018-04-12T05:16:20.877Z,90.90
2018-04-12T05:18:48.303Z,91.00
2018-04-12T05:21:15.739Z,91.00
2018-04-12T05:23:43.985Z,91.10
2018-04-12T05:26:11.423Z,91.00
2018-04-12T05:28:38.864Z,91.10
2018-04-12T05:31:06.296Z,91.10
2018-04-12T05:33:33.787Z,91.10
2018-04-12T05:36:01.223Z,91.10
2018-04-12T05:38:28.674Z,91.20
2018-04-12T05:40:56.154Z,91.20
2018-04-12T05:43:23.594Z,91.20
2018-04-12T05:45:51.033Z,91.20
2018-04-12T05:48:19.241Z,91.20
2018-04-12T05:50:46.670Z,91.20
2018-04-12T05:53:14.100Z,91.30
2018-04-12T05:55:41.553Z,91.20
2018-04-12T05:58:10.487Z,91.30
2018-04-12T06:00:37.983Z,91.30
2018-04-12T06:03:05.423Z,91.20
2018-04-12T06:05:32.872Z,91.30
2018-04-12T06:08:00.355Z,91.20
2018-04-12T06:10:27.798Z,91.20
2018-04-12T06:12:55.245Z,91.20
2018-04-12T06:15:22.675Z,91.10
2018-04-12T06:17:50.887Z,91.20
2018-04-12T06:20:18.310Z,91.20
2018-04-12T06:22:46.523Z,91.20
2018-04-12T06:25:13.966Z,91.20
2018-04-12T06:27:41.416Z,91.20
2018-04-12T06:30:08.887Z,91.20
2018-04-12T06:32:36.347Z,91.20
2018-04-12T06:35:03.811Z,91.30
2018-04-12T06:37:31.367Z,91.30
2018-04-12T06:39:58.811Z,91.60
2018-04-12T06:42:26.290Z,91.30
2018-04-12T06:44:53.711Z,91.30
2018-04-12T06:47:21.203Z,91.30
2018-04-12T06:49:48.623Z,91.30
2018-04-12T06:52:16.115Z,91.30
2018-04-12T06:54:43.563Z,91.30
2018-04-12T06:57:11.031Z,91.30
2018-04-12T06:59:38.505Z,91.30
2018-04-12T07:02:05.943Z,91.40
2018-04-12T07:04:33.402Z,91.30
2018-04-12T07:07:00.823Z,91.30
2018-04-12T07:09:28.306Z,91.30
2018-04-12T07:11:55.742Z,91.30
2018-04-12T07:14:23.264Z,91.30
2018-04-12T07:16:50.745Z,91.40
2018-04-12T07:19:18.258Z,91.40
2018-04-12T07:21:45.655Z,91.40
2018-04-12T07:24:13.091Z,91.40
2018-04-12T07:26:40.565Z,90.90
2018-04-12T07:29:08.024Z,90.80
2018-04-12T07:31:35.469Z,90.80
2018-04-12T07:34:02.956Z,90.90
2018-04-12T07:36:30.399Z,90.80
2018-04-12T07:38:57.891Z,90.80
2018-04-12T07:41:25.323Z,91.10
2018-04-12T07:43:52.878Z,90.80
2018-04-12T07:46:20.334Z,90.80
2018-04-12T07:48:47.790Z,90.70
2018-04-12T07:51:15.266Z,90.60
2018-04-12T07:53:42.716Z,90.60
2018-04-12T07:56:10.279Z,90.50
2018-04-12T07:58:37.824Z,90.50
2018-04-12T08:01:05.259Z,90.40
2018-04-12T08:03:32.691Z,90.40
2018-04-12T08:06:00.915Z,90.40
2018-04-12T08:08:28.379Z,90.40
2018-04-12T08:10:55.811Z,90.40
2018-04-12T08:13:23.319Z,90.40
2018-04-12T08:15:50.745Z,90.40
2018-04-12T08:18:18.212Z,90.30
2018-04-12T08:20:45.640Z,90.30
2018-04-12T08:23:13.077Z,90.20
2018-04-12T08:25:41.276Z,90.00
2018-04-12T08:28:08.751Z,90.00
2018-04-12T08:30:36.303Z,90.00
2018-04-12T08:33:03.754Z,89.80
2018-04-12T08:35:31.309Z,89.70
2018-04-12T08:37:58.816Z,89.60
2018-04-12T08:40:26.272Z,89.50
2018-04-12T08:42:53.716Z,89.50
2018-04-12T08:45:21.195Z,89.50
2018-04-12T08:47:48.624Z,89.30
2018-04-12T08:50:16.173Z,89.00
2018-04-12T08:52:44.380Z,89.10
2018-04-12T08:55:11.837Z,89.00
2018-04-12T08:57:39.261Z,88.90
2018-04-12T09:00:07.477Z,88.70
2018-04-12T09:02:34.955Z,88.70
2018-04-12T09:05:02.499Z,88.70
2018-04-12T09:07:29.959Z,88.60
2018-04-12T09:09:57.411Z,88.50
2018-04-12T09:12:24.860Z,88.40
2018-04-12T09:14:52.335Z,88.40
2018-04-12T09:17:19.803Z,88.50
2018-04-12T09:19:47.246Z,88.20
2018-04-12T09:22:14.719Z,88.20
2018-04-12T09:24:42.156Z,88.90
2018-04-12T09:27:09.599Z,87.80
2018-04-12T09:29:37.095Z,87.60
2018-04-12T09:32:04.553Z,87.60
2018-04-12T09:34:32.044Z,87.50
2018-04-12T09:37:00.378Z,87.30
2018-04-12T09:39:27.731Z,87.20
2018-04-12T09:41:55.164Z,87.30
2018-04-12T09:44:22.611Z,87.20
2018-04-12T09:46:50.051Z,87.00
2018-04-12T09:49:18.278Z,86.80
2018-04-12T09:51:45.692Z,86.80
2018-04-12T09:54:13.897Z,86.70
2018-04-12T09:56:41.346Z,86.70
2018-04-12T09:59:08.783Z,86.80
2018-04-12T10:01:41.996Z,86.70
2018-04-12T10:04:15.179Z,86.60
2018-04-12T10:06:42.622Z,86.50
2018-04-12T10:09:14.831Z,86.20
2018-04-12T10:11:42.287Z,86.10
2018-04-12T10:14:09.747Z,85.90
2018-04-12T10:16:37.242Z,85.90
2018-04-12T10:19:04.663Z,85.80
2018-04-12T10:21:32.095Z,85.70
2018-04-12T10:23:59.592Z,85.60
2018-04-12T10:26:27.035Z,85.70
2018-04-12T10:28:54.491Z,85.60
2018-04-12T10:31:21.972Z,85.40
2018-04-12T10:33:49.423Z,85.30
2018-04-12T10:36:16.851Z,85.10
2018-04-12T10:38:44.334Z,85.00
2018-04-12T10:41:11.774Z,84.70
2018-04-12T10:43:39.235Z,84.80
2018-04-12T10:46:06.700Z,84.50
2018-04-12T10:48:34.131Z,84.00
2018-04-12T10:51:01.575Z,83.40
2018-04-12T10:53:29.012Z,82.60
2018-04-12T10:55:57.235Z,81.30
2018-04-12T10:58:24.695Z,81.30
2018-04-12T11:00:52.161Z,81.00
2018-04-12T11:03:19.591Z,80.80
2018-04-12T11:05:47.051Z,80.40
2018-04-12T11:08:14.506Z,80.20
2018-04-12T11:10:41.955Z,80.00
2018-04-12T11:13:09.440Z,79.60
2018-04-12T11:15:36.863Z,79.40
2018-04-12T11:18:04.308Z,79.20
2018-04-12T11:20:32.534Z,79.00
2018-04-12T11:22:59.966Z,79.00
2018-04-12T11:25:27.441Z,79.00
2018-04-12T11:27:54.867Z,78.90
2018-04-12T11:30:22.347Z,78.90
2018-04-12T11:32:49.819Z,78.60
2018-04-12T11:35:17.247Z,78.50
2018-04-12T11:37:44.687Z,78.40
2018-04-12T11:40:12.184Z,78.30
2018-04-12T11:42:39.637Z,78.20
2018-04-12T11:45:07.086Z,78.20
2018-04-12T11:47:34.565Z,78.00
2018-04-12T11:50:01.991Z,77.80
2018-04-12T11:52:29.467Z,77.60
2018-04-12T11:54:56.938Z,77.70
2018-04-12T11:57:24.342Z,78.00
2018-04-12T11:59:52.620Z,78.00
2018-04-12T12:02:20.816Z,78.50
2018-04-12T12:04:48.259Z,78.40
2018-04-12T12:07:15.697Z,78.60
2018-04-12T12:09:43.942Z,78.90
2018-04-12T12:12:11.375Z,78.90
2018-04-12T12:14:38.823Z,78.80
2018-04-12T12:17:06.324Z,78.80
2018-04-12T12:19:33.780Z,78.50
2018-04-12T12:22:01.220Z,78.40
2018-04-12T12:24:28.662Z,78.30
2018-04-12T12:26:56.104Z,78.70
2018-04-12T12:29:23.576Z,78.90
2018-04-12T12:31:51.039Z,79.10
2018-04-12T12:34:18.495Z,79.20
2018-04-12T12:36:45.937Z,79.10
2018-04-12T12:39:13.359Z,78.80
2018-04-12T12:41:41.596Z,78.60
2018-04-12T12:44:09.027Z,78.60
2018-04-12T12:46:36.499Z,78.80
2018-04-12T12:49:03.948Z,78.90
2018-04-12T12:51:31.411Z,78.90
2018-04-12T12:53:58.871Z,78.80
2018-04-12T12:56:26.300Z,78.60
2018-04-12T12:58:53.748Z,78.20
2018-04-12T13:01:21.267Z,78.40
2018-04-12T13:03:48.687Z,78.50
2018-04-12T13:06:16.121Z,78.40
2018-04-12T13:08:43.595Z,78.20
2018-04-12T13:11:11.100Z,77.60
2018-04-12T13:13:38.650Z,77.80
2018-04-12T13:16:06.098Z,78.10
2018-04-12T13:18:33.571Z,78.60
2018-04-12T13:21:01.206Z,78.80
2018-04-12T13:23:28.814Z,79.10
2018-04-12T13:25:56.342Z,79.00
2018-04-12T13:28:23.839Z,79.70
2018-04-12T13:30:51.274Z,79.60
2018-04-12T13:33:18.750Z,79.40
2018-04-12T13:35:46.150Z,79.30
2018-04-12T13:38:13.631Z,78.70
2018-04-12T13:40:41.083Z,78.30
2018-04-12T13:43:08.551Z,77.80
2018-04-12T13:45:35.999Z,77.10
2018-04-12T13:48:03.455Z,76.70
2018-04-12T13:50:30.902Z,76.70
2018-04-12T13:52:58.331Z,76.50
2018-04-12T13:55:25.831Z,76.20
2018-04-12T13:57:53.277Z,76.00
2018-04-12T14:00:20.720Z,76.00
2018-04-12T14:02:48.186Z,76.10
2018-04-12T14:05:15.627Z,75.80
2018-04-12T14:07:43.153Z,75.90
2018-04-12T14:10:10.691Z,74.60
2018-04-12T14:12:38.142Z,74.60
2018-04-12T14:15:05.570Z,74.40
2018-04-12T14:17:33.023Z,73.60
2018-04-12T14:20:00.504Z,73.20
2018-04-12T14:22:27.949Z,72.70
2018-04-12T14:24:55.395Z,72.00
2018-04-12T14:27:22.834Z,71.50
2018-04-12T14:29:51.036Z,70.70
2018-04-12T14:32:18.511Z,70.60
2018-04-12T14:34:46.048Z,70.10
2018-04-12T14:37:13.532Z,69.50
2018-04-12T14:39:40.985Z,69.40
2018-04-12T14:42:09.351Z,69.00
2018-04-12T14:44:36.794Z,68.90
2018-04-12T14:47:04.279Z,69.50
2018-04-12T14:49:31.722Z,69.40
2018-04-12T14:51:59.164Z,69.60
2018-04-12T14:54:26.609Z,70.00
2018-04-12T14:56:54.835Z,69.90
2018-04-12T14:59:22.268Z,69.80
2018-04-12T15:01:49.755Z,69.70
2018-04-12T15:04:17.194Z,69.70
2018-04-12T15:06:45.460Z,69.60
2018-04-12T15:09:12.918Z,69.80
2018-04-12T15:11:40.357Z,70.00
2018-04-12T15:14:07.825Z,70.50
2018-04-12T15:16:35.314Z,70.50
2018-04-12T15:19:02.754Z,70.70
2018-04-12T15:21:30.255Z,71.00
2018-04-12T15:23:57.692Z,71.30
2018-04-12T15:26:25.149Z,71.40
2018-04-12T15:28:52.573Z,71.70
2018-04-12T15:31:20.008Z,71.90
2018-04-12T15:33:47.438Z,72.00
2018-04-12T15:36:14.890Z,72.20
2018-04-12T15:38:42.415Z,72.50
2018-04-12T15:41:09.867Z,72.60
2018-04-12T15:43:37.323Z,72.70
2018-04-12T15:46:04.804Z,72.70
2018-04-12T15:48:32.231Z,72.80
2018-04-12T15:50:59.690Z,72.80
2018-04-12T15:53:27.128Z,72.90
2018-04-12T15:55:54.579Z,73.10
2018-04-12T15:58:22.007Z,73.10
2018-04-12T16:00:50.947Z,73.00
2018-04-12T16:03:18.388Z,73.00
2018-04-12T16:05:46.587Z,73.20
2018-04-12T16:08:14.051Z,73.10
2018-04-12T16:10:41.527Z,73.20
2018-04-12T16:13:08.963Z,73.20
2018-04-12T16:15:36.416Z,73.10
2018-04-12T16:18:03.895Z,73.20
2018-04-12T16:20:31.503Z,73.30
2018-04-12T16:22:59.718Z,73.50
2018-04-12T16:25:27.161Z,73.40
2018-04-12T16:27:54.647Z,73.30
2018-04-12T16:30:22.092Z,73.20
2018-04-12T16:32:49.544Z,73.00
2018-04-12T16:35:16.975Z,73.00
2018-04-12T16:37:45.177Z,73.10
2018-04-12T16:40:12.651Z,73.10
2018-04-12T16:42:40.081Z,73.20
2018-04-12T16:45:07.527Z,73.10
2018-04-12T16:47:35.726Z,72.90
2018-04-12T16:50:03.215Z,72.90
2018-04-12T16:52:30.662Z,72.80
2018-04-12T16:54:58.214Z,72.70
2018-04-12T16:57:25.685Z,72.80
2018-04-12T16:59:53.133Z,72.70
2018-04-12T17:02:20.571Z,72.80
2018-04-12T17:04:48.027Z,72.90
2018-04-12T17:07:15.510Z,73.00
2018-04-12T17:09:42.984Z,73.10
2018-04-12T17:12:10.454Z,73.20
2018-04-12T17:14:37.880Z,73.10
2018-04-12T17:17:05.317Z,73.10
2018-04-12T17:19:32.780Z,73.40
2018-04-12T17:22:00.228Z,73.40
2018-04-12T17:24:27.695Z,73.40
2018-04-12T17:26:55.147Z,73.50
2018-04-12T17:29:22.627Z,73.60
2018-04-12T17:31:50.064Z,73.60
2018-04-12T17:34:18.111Z,74.40
2018-04-12T17:36:46.338Z,73.80
2018-04-12T17:39:13.789Z,73.80
2018-04-12T17:41:41.236Z,73.90
2018-04-12T17:44:08.700Z,74.00
2018-04-12T17:46:36.138Z,74.20
2018-04-12T17:49:03.621Z,74.30
2018-04-12T17:51:31.079Z,74.30
2018-04-12T17:53:58.528Z,74.40
2018-04-12T17:56:25.952Z,74.40
2018-04-12T17:58:53.392Z,74.40
2018-04-12T18:01:21.638Z,74.80
2018-04-12T18:03:49.075Z,74.70
2018-04-12T18:06:16.540Z,74.90
2018-04-12T18:08:43.985Z,75.00
2018-04-12T18:11:11.414Z,75.10
2018-04-12T18:13:38.867Z,75.20
2018-04-12T18:16:06.363Z,75.30
2018-04-12T18:18:33.800Z,75.40
2018-04-12T18:21:01.244Z,75.50
2018-04-12T18:23:28.741Z,75.60
2018-04-12T18:25:56.176Z,75.70
2018-04-12T18:28:23.630Z,75.90
2018-04-12T18:30:51.072Z,76.00
2018-04-12T18:33:18.528Z,76.10
2018-04-12T18:35:46.011Z,76.10
2018-04-12T18:38:13.458Z,76.30
2018-04-12T18:40:40.895Z,76.40
2018-04-12T18:43:08.387Z,76.40
2018-04-12T18:45:35.843Z,76.60
2018-04-12T18:48:03.299Z,76.70
2018-04-12T18:50:30.729Z,76.80
2018-04-12T18:52:58.171Z,76.90
2018-04-12T18:55:26.364Z,77.00
2018-04-12T18:57:53.848Z,77.00
2018-04-12T19:00:21.325Z,77.10
2018-04-12T19:02:48.863Z,77.20
2018-04-12T19:05:16.292Z,77.30
2018-04-12T19:07:43.734Z,77.50
2018-04-12T19:10:11.943Z,77.60
2018-04-12T19:12:39.398Z,77.60
2018-04-12T19:15:06.827Z,77.70
2018-04-12T19:17:35.027Z,77.90
2018-04-12T19:20:02.496Z,77.90
2018-04-12T19:22:29.951Z,78.00
2018-04-12T19:24:57.403Z,78.20
2018-04-12T19:27:24.899Z,78.40
2018-04-12T19:29:52.291Z,79.00
2018-04-12T19:32:19.735Z,79.80
2018-04-12T19:34:47.935Z,79.30
2018-04-12T19:37:15.368Z,79.20
2018-04-12T19:39:43.616Z,79.50
2018-04-12T19:42:11.051Z,79.40
2018-04-12T19:44:38.485Z,79.50
2018-04-12T19:47:05.939Z,79.50
2018-04-12T19:49:33.382Z,79.70
2018-04-12T19:52:01.620Z,80.00
2018-04-12T19:54:29.863Z,80.10
2018-04-12T19:56:57.323Z,80.10
2018-04-12T19:59:24.797Z,80.90
2018-04-12T20:01:52.257Z,81.00
2018-04-12T20:04:19.683Z,80.30
2018-04-12T20:06:47.127Z,80.40
2018-04-12T20:09:14.566Z,80.60
2018-04-12T20:11:42.789Z,80.70
2018-04-12T20:14:10.235Z,80.80
2018-04-12T20:16:37.691Z,80.80
2018-04-12T20:19:05.135Z,81.00
2018-04-12T20:21:32.571Z,81.10
2018-04-12T20:24:00.778Z,81.40
2018-04-12T20:26:28.215Z,81.40
2018-04-12T20:28:55.718Z,81.60
2018-04-12T20:31:23.254Z,81.80
2018-04-12T20:33:50.667Z,82.00
2018-04-12T20:36:18.956Z,82.20
2018-04-12T20:38:46.338Z,82.20
2018-04-12T20:41:13.805Z,82.20
2018-04-12T20:43:41.241Z,82.20
2018-04-12T20:46:08.721Z,82.20
2018-04-12T20:48:36.895Z,82.50
2018-04-12T20:51:04.355Z,82.50
2018-04-12T20:53:31.815Z,82.50
2018-04-12T20:56:00.263Z,82.50
2018-04-12T20:58:27.700Z,82.50
2018-04-12T21:00:55.910Z,82.60
2018-04-12T21:03:23.383Z,82.60
2018-04-12T21:05:50.838Z,82.70
2018-04-12T21:08:18.423Z,82.70
2018-04-12T21:10:45.731Z,82.90
2018-04-12T21:13:13.204Z,83.00
2018-04-12T21:15:40.740Z,83.00
2018-04-12T21:18:08.179Z,83.10
2018-04-12T21:20:36.430Z,83.50
2018-04-12T21:23:03.902Z,83.50
2018-04-12T21:25:31.343Z,83.60
2018-04-12T21:27:58.799Z,83.60
2018-04-12T21:30:26.227Z,83.70
2018-04-12T21:32:53.675Z,83.80
2018-04-12T21:35:21.120Z,83.90
2018-04-12T21:37:48.546Z,84.00
2018-04-12T21:40:16.760Z,84.20
2018-04-12T21:42:44.224Z,84.20
2018-04-12T21:45:11.697Z,84.20
2018-04-12T21:47:39.143Z,84.40
2018-04-12T21:50:06.594Z,84.50
2018-04-12T21:52:34.049Z,84.70
2018-04-12T21:55:01.546Z,85.50
2018-04-12T21:57:29.003Z,85.40
2018-04-12T21:59:56.571Z,85.20
2018-04-12T22:02:24.790Z,85.20
2018-04-12T22:04:52.271Z,85.20
2018-04-12T22:07:19.779Z,85.10
2018-04-12T22:09:47.215Z,85.10
2018-04-12T22:12:14.656Z,85.10
2018-04-12T22:14:42.089Z,85.10
2018-04-12T22:17:09.543Z,85.10
2018-04-12T22:19:36.989Z,85.20
2018-04-12T22:22:04.503Z,85.10
2018-04-12T22:24:31.946Z,85.20
2018-04-12T22:26:59.387Z,85.40
2018-04-12T22:29:26.839Z,85.60
2018-04-12T22:31:54.335Z,85.70
2018-04-12T22:34:21.802Z,85.80
2018-04-12T22:36:50.039Z,86.10
2018-04-12T22:39:17.490Z,86.10
2018-04-12T22:41:44.930Z,86.10
2018-04-12T22:44:12.407Z,86.20
2018-04-12T22:46:39.912Z,86.20
2018-04-12T22:49:07.362Z,86.30
2018-04-12T22:51:34.897Z,86.40
2018-04-12T22:54:02.381Z,86.40
2018-04-12T22:56:29.799Z,86.40
2018-04-12T22:58:57.246Z,86.50
2018-04-12T23:01:24.679Z,86.60
2018-04-12T23:03:52.119Z,86.60
2018-04-12T23:06:20.330Z,86.70
2018-04-12T23:08:47.771Z,86.60
2018-04-12T23:11:15.202Z,86.60
2018-04-12T23:13:43.428Z,86.50
2018-04-12T23:16:10.872Z,86.30
2018-04-12T23:18:38.307Z,86.30
2018-04-12T23:21:05.747Z,86.30
2018-04-12T23:23:33.957Z,86.60
2018-04-12T23:26:01.443Z,86.50
2018-04-12T23:28:29.820Z,86.60
2018-04-12T23:30:57.271Z,86.60
2018-04-12T23:33:24.715Z,86.70
2018-04-12T23:35:52.181Z,86.70
2018-04-12T23:38:19.611Z,86.90
2018-04-12T23:40:47.094Z,87.00
2018-04-12T23:43:14.543Z,87.00
2018-04-12T23:45:41.986Z,87.10
2018-04-12T23:48:09.415Z,87.10
2018-04-12T23:50:37.658Z,87.10
2018-04-12T23:53:05.090Z,87.10
2018-04-12T23:55:32.551Z,87.30
2018-04-12T23:57:59.986Z,87.40
